This is the latest recevied weather packets stored in our database for station/object N5YHM-13. If no packets are shown the sender has not sent any weather packets the latest 1 day(s).
| Time | Temp. | Humidity | Pressure | Rain* | Wind** | Luminosity | Snow |
|---|---|---|---|---|---|---|---|
| 1778001339 | 25.56° C | 72% | 1015.5 hPa | 0 mm | 0 m/s | 14 W/m² | - |
| 1778001036 | 25.56° C | 72% | 1015.4 hPa | 0 mm | 0 m/s | 15 W/m² | - |
| 1778000733 | 25.56° C | 73% | 1015.3 hPa | 0 mm | 0.45 m/s, 221° | 17 W/m² | - |
| 1778000429 | 25.56° C | 74% | 1015.4 hPa | 0 mm | 1.34 m/s, 187° | 17 W/m² | - |
| 1778000125 | 25.56° C | 72% | 1015.5 hPa | 0 mm | 0 m/s | 18 W/m² | - |
| 1777999820 | 25.56° C | 73% | 1015.4 hPa | 0 mm | 0 m/s | 19 W/m² | - |
| 1777999516 | 25.56° C | 72% | 1015.2 hPa | 0 mm | 0 m/s | 16 W/m² | - |
| 1777999215 | 25° C | 74% | 1015.3 hPa | 0 mm | 0 m/s | 17 W/m² | - |
| 1777998913 | 25° C | 74% | 1015.3 hPa | 0 mm | 0.45 m/s, 215° | 16 W/m² | - |
| 1777998609 | 25° C | 73% | 1015.3 hPa | 0 mm | 0 m/s | 16 W/m² | - |
| 1777998303 | 25° C | 74% | 1015.3 hPa | 0 mm | 0.45 m/s, 191° | 32 W/m² | - |
| 1777997999 | 25° C | 75% | 1015.3 hPa | 0 mm | 0.45 m/s, 227° | 15 W/m² | - |
| 1777997690 | 24.44° C | 76% | 1015.4 hPa | 0 mm | 0 m/s | 18 W/m² | - |
| 1777997388 | 24.44° C | 77% | 1015.4 hPa | 0 mm | 0.45 m/s, 233° | 19 W/m² | - |
| 1777997086 | 24.44° C | 77% | 1015.2 hPa | 0 mm | 0.45 m/s, 219° | 20 W/m² | - |
| 1777996782 | 23.89° C | 77% | 1015.5 hPa | 0 mm | 0 m/s | 18 W/m² | - |
| 1777996479 | 24.44° C | 77% | 1015.3 hPa | 0 mm | 0 m/s | 15 W/m² | - |
| 1777996175 | 24.44° C | 77% | 1015.5 hPa | 0 mm | 0 m/s | 21 W/m² | - |
| 1777995872 | 24.44° C | 78% | 1015.5 hPa | 0 mm | 0.45 m/s, 221° | 20 W/m² | - |
| 1777995567 | 24.44° C | 78% | 1015.5 hPa | 0 mm | 0 m/s | 21 W/m² | - |
| 1777995265 | 24.44° C | 78% | 1015.4 hPa | 0 mm | 0 m/s | 21 W/m² | - |
| 1777994962 | 23.89° C | 77% | 1015.3 hPa | 0 mm | 0.45 m/s, 231° | 36 W/m² | - |
| 1777994659 | 23.89° C | 77% | 1015.3 hPa | 0 mm | 0.45 m/s, 242° | 17 W/m² | - |
| 1777994359 | 23.89° C | 77% | 1015.4 hPa | 0 mm | 0.45 m/s, 158° | 14 W/m² | - |
| 1777994056 | 23.89° C | 78% | 1015.4 hPa | 0 mm | 0 m/s | 16 W/m² | - |
* Rain latest hour (hover to see other rain measurements)
** Current wind speed in m/s (hover to see current wind gust speed)